createdAt,value
2022-11-29T00:01:31.202Z,64.22
2022-11-29T00:03:59.991Z,64.19
2022-11-29T00:06:30.942Z,64.43
2022-11-29T00:09:00.795Z,64.83
2022-11-29T00:11:47.630Z,64.96
2022-11-29T00:14:17.470Z,65.15
2022-11-29T00:16:45.471Z,64.08
2022-11-29T00:19:14.254Z,64.44
2022-11-29T00:21:43.500Z,64.48
2022-11-29T00:24:11.284Z,65.18
2022-11-29T00:26:39.246Z,64.61
2022-11-29T00:29:07.556Z,64.55
2022-11-29T00:31:35.673Z,64.39
2022-11-29T00:34:06.827Z,64.01
2022-11-29T00:36:35.557Z,63.43
2022-11-29T00:39:05.824Z,63.15
2022-11-29T00:41:33.840Z,63.07
2022-11-29T00:44:01.715Z,63.83
2022-11-29T00:46:29.627Z,63.17
2022-11-29T00:48:57.464Z,63.34
2022-11-29T00:51:25.361Z,62.62
2022-11-29T00:53:53.170Z,62.30
2022-11-29T00:56:22.646Z,63.47
2022-11-29T00:58:50.468Z,62.23
2022-11-29T01:01:18.575Z,61.96
2022-11-29T01:03:46.460Z,61.76
2022-11-29T01:06:16.429Z,61.57
2022-11-29T01:08:45.634Z,61.12
2022-11-29T01:11:15.896Z,61.24
2022-11-29T01:13:45.714Z,60.72
2022-11-29T01:16:15.247Z,60.62
2022-11-29T01:18:43.479Z,60.63
2022-11-29T01:21:13.189Z,60.30
2022-11-29T01:23:42.112Z,59.90
2022-11-29T01:26:11.362Z,60.37
2022-11-29T01:28:40.118Z,60.31
2022-11-29T01:31:10.834Z,60.00
2022-11-29T01:33:39.288Z,59.19
2022-11-29T01:36:08.268Z,59.48
2022-11-29T01:38:37.017Z,59.82
2022-11-29T01:41:06.732Z,59.40
2022-11-29T01:43:35.355Z,59.45
2022-11-29T01:46:03.228Z,73.90
2022-11-29T01:48:34.002Z,67.49
2022-11-29T01:51:02.516Z,60.20
2022-11-29T01:53:30.506Z,59.53
2022-11-29T01:56:01.759Z,57.93
2022-11-29T01:58:29.665Z,58.43
2022-11-29T02:00:57.533Z,57.43
2022-11-29T02:03:25.603Z,58.16
2022-11-29T02:05:55.220Z,58.55
2022-11-29T02:08:27.347Z,59.24
2022-11-29T02:11:13.364Z,58.70
2022-11-29T02:13:52.723Z,59.17
2022-11-29T02:16:24.872Z,58.64
2022-11-29T02:19:00.603Z,58.56
2022-11-29T02:21:34.535Z,59.41
2022-11-29T02:24:37.334Z,59.87
2022-11-29T02:27:36.336Z,59.67
2022-11-29T02:30:20.349Z,58.99
2022-11-29T02:33:22.393Z,59.67
2022-11-29T02:36:19.972Z,59.46
2022-11-29T02:39:19.737Z,58.19
2022-11-29T02:41:56.978Z,57.62
2022-11-29T02:44:42.229Z,58.19
2022-11-29T02:47:17.967Z,58.74
2022-11-29T02:50:02.120Z,58.10
2022-11-29T02:52:38.397Z,58.52
2022-11-29T02:55:09.620Z,57.54
2022-11-29T02:57:43.243Z,58.33
2022-11-29T03:00:14.633Z,57.99
2022-11-29T03:02:49.374Z,57.82
2022-11-29T03:05:21.549Z,57.49
2022-11-29T03:07:55.955Z,59.06
2022-11-29T03:10:32.515Z,58.74
2022-11-29T03:13:01.139Z,59.10
2022-11-29T03:15:31.309Z,57.82
2022-11-29T03:18:08.657Z,59.75
2022-11-29T03:20:40.416Z,59.56
2022-11-29T03:23:17.403Z,59.94
2022-11-29T03:25:47.658Z,59.92
2022-11-29T03:28:18.000Z,60.89
2022-11-29T03:30:51.894Z,60.38
2022-11-29T03:33:25.571Z,61.18
2022-11-29T03:36:00.530Z,60.51
2022-11-29T03:38:32.333Z,60.69
2022-11-29T03:41:07.019Z,60.68
2022-11-29T03:43:40.632Z,60.59
2022-11-29T03:46:12.658Z,60.28
2022-11-29T03:48:44.870Z,59.68
2022-11-29T03:51:17.066Z,61.29
2022-11-29T03:53:49.624Z,61.69
2022-11-29T03:56:29.610Z,61.56
2022-11-29T03:59:05.342Z,63.17
2022-11-29T04:01:58.026Z,62.13
2022-11-29T04:04:59.006Z,62.44
2022-11-29T04:07:37.410Z,63.58
2022-11-29T04:10:17.974Z,63.11
2022-11-29T04:13:24.967Z,62.30
2022-11-29T04:16:35.388Z,62.83
2022-11-29T04:19:29.208Z,62.55
2022-11-29T04:22:23.758Z,62.85
2022-11-29T04:25:11.305Z,62.17
2022-11-29T04:27:49.798Z,62.69
2022-11-29T04:30:21.058Z,62.48
2022-11-29T04:33:27.214Z,62.11
2022-11-29T04:36:35.833Z,62.59
2022-11-29T04:39:22.132Z,63.01
2022-11-29T04:42:15.968Z,63.04
2022-11-29T04:45:05.167Z,63.07
2022-11-29T04:47:52.147Z,64.17
2022-11-29T04:50:28.576Z,63.25
2022-11-29T04:53:12.957Z,63.52
2022-11-29T04:55:46.893Z,65.11
2022-11-29T04:58:22.037Z,63.11
2022-11-29T05:00:57.544Z,64.78
2022-11-29T05:03:35.425Z,59.73
2022-11-29T05:06:18.118Z,63.26
2022-11-29T05:08:52.490Z,58.92
2022-11-29T05:11:28.184Z,59.02
2022-11-29T05:14:01.352Z,58.41
2022-11-29T05:16:46.878Z,56.15
2022-11-29T05:19:30.714Z,56.54
2022-11-29T05:22:07.748Z,57.60
2022-11-29T05:24:52.427Z,58.22
2022-11-29T05:27:28.252Z,58.74
2022-11-29T05:30:02.391Z,58.48
2022-11-29T05:32:35.493Z,59.79
2022-11-29T05:35:38.841Z,60.31
2022-11-29T05:38:20.523Z,59.77
2022-11-29T05:40:58.732Z,59.30
2022-11-29T05:43:41.421Z,62.27
2022-11-29T05:46:14.502Z,59.71
2022-11-29T05:48:47.797Z,60.23
2022-11-29T05:51:22.752Z,60.19
2022-11-29T05:53:58.566Z,60.74
2022-11-29T05:56:30.892Z,61.35
2022-11-29T05:59:01.218Z,60.40
2022-11-29T06:01:32.777Z,60.53
2022-11-29T06:04:07.957Z,60.74
2022-11-29T06:06:44.543Z,60.92
2022-11-29T06:09:16.220Z,60.44
2022-11-29T06:11:47.334Z,60.15
2022-11-29T06:14:26.662Z,60.80
2022-11-29T06:17:03.779Z,60.54
2022-11-29T06:19:52.329Z,60.85
2022-11-29T06:22:33.248Z,61.66
2022-11-29T06:25:13.207Z,62.03
2022-11-29T06:27:57.490Z,61.45
2022-11-29T06:30:28.777Z,61.63
2022-11-29T06:33:03.109Z,61.06
2022-11-29T06:35:40.887Z,60.89
2022-11-29T06:38:13.768Z,60.50
2022-11-29T06:40:42.128Z,60.62
2022-11-29T06:43:10.405Z,60.24
2022-11-29T06:45:38.921Z,60.73
2022-11-29T06:48:11.140Z,59.66
2022-11-29T06:50:49.019Z,61.05
2022-11-29T06:53:23.162Z,59.95
2022-11-29T06:55:55.499Z,60.11
2022-11-29T06:58:41.094Z,60.10
2022-11-29T07:01:20.255Z,60.22
2022-11-29T07:04:08.930Z,60.63
2022-11-29T07:06:37.681Z,60.80
2022-11-29T07:09:14.367Z,60.13
2022-11-29T07:11:43.463Z,59.35
2022-11-29T07:14:12.195Z,60.48
2022-11-29T07:16:45.464Z,60.58
2022-11-29T07:19:21.838Z,61.80
2022-11-29T07:21:56.323Z,61.02
2022-11-29T07:24:45.709Z,58.87
2022-11-29T07:27:20.139Z,57.91
2022-11-29T07:30:05.036Z,58.11
2022-11-29T07:32:45.878Z,58.81
2022-11-29T07:35:20.746Z,58.49
2022-11-29T07:37:58.779Z,57.30
2022-11-29T07:40:37.182Z,57.17
2022-11-29T07:43:17.732Z,57.83
2022-11-29T07:45:45.760Z,57.53
2022-11-29T07:48:14.123Z,56.69
2022-11-29T07:50:44.320Z,56.18
2022-11-29T07:53:16.965Z,55.36
2022-11-29T07:55:45.309Z,54.97
2022-11-29T07:58:13.756Z,54.69
2022-11-29T08:00:42.261Z,55.36
2022-11-29T08:03:10.529Z,54.26
2022-11-29T08:05:39.013Z,54.49
2022-11-29T08:08:08.767Z,53.94
2022-11-29T08:10:36.695Z,56.28
2022-11-29T08:13:04.725Z,57.61
2022-11-29T08:15:32.558Z,55.02
2022-11-29T08:18:00.415Z,56.36
2022-11-29T08:20:28.187Z,56.84
2022-11-29T08:22:56.851Z,55.25
2022-11-29T08:25:26.394Z,53.85
2022-11-29T08:27:55.096Z,53.58
2022-11-29T08:30:23.705Z,52.31
2022-11-29T08:32:52.348Z,51.02
2022-11-29T08:35:21.623Z,51.48
2022-11-29T08:37:49.632Z,51.50
2022-11-29T08:40:17.873Z,55.31
2022-11-29T08:42:47.090Z,52.51
2022-11-29T08:45:14.934Z,52.01
2022-11-29T08:47:42.939Z,51.86
2022-11-29T08:50:14.433Z,52.35
2022-11-29T08:53:01.561Z,52.07
2022-11-29T08:55:32.477Z,51.99
2022-11-29T08:58:04.512Z,51.82
2022-11-29T09:00:33.305Z,51.70
2022-11-29T09:03:16.687Z,52.04
2022-11-29T09:05:44.912Z,51.73
2022-11-29T09:08:12.790Z,52.14
2022-11-29T09:10:40.948Z,51.99
2022-11-29T09:13:11.038Z,52.46
2022-11-29T09:15:39.276Z,52.45
2022-11-29T09:18:07.309Z,51.83
2022-11-29T09:20:35.377Z,51.98
2022-11-29T09:23:03.667Z,50.81
2022-11-29T09:25:31.513Z,50.57
2022-11-29T09:28:01.863Z,50.33
2022-11-29T09:30:31.753Z,49.54
2022-11-29T09:33:02.648Z,49.35
2022-11-29T09:35:30.653Z,49.50
2022-11-29T09:37:58.533Z,49.16
2022-11-29T09:40:32.229Z,49.55
2022-11-29T09:43:03.853Z,49.23
2022-11-29T09:45:37.939Z,49.14
2022-11-29T09:48:20.709Z,48.43
2022-11-29T09:50:49.770Z,48.74
2022-11-29T09:53:27.464Z,49.07
2022-11-29T09:56:04.143Z,48.25
2022-11-29T09:58:38.071Z,48.72
2022-11-29T10:01:09.840Z,48.79
2022-11-29T10:03:41.814Z,48.83
2022-11-29T10:06:25.039Z,49.16
2022-11-29T10:08:56.623Z,49.02
2022-11-29T10:11:28.266Z,49.22
2022-11-29T10:14:01.117Z,49.35
2022-11-29T10:16:38.142Z,49.76
2022-11-29T10:19:11.168Z,49.73
2022-11-29T10:21:43.098Z,49.92
2022-11-29T10:24:14.698Z,50.02
2022-11-29T10:26:43.486Z,49.96
2022-11-29T10:29:13.675Z,50.03
2022-11-29T10:31:46.903Z,49.76
2022-11-29T10:34:16.736Z,49.06
2022-11-29T10:36:46.552Z,49.12
2022-11-29T10:39:18.319Z,49.24
2022-11-29T10:41:46.399Z,49.39
2022-11-29T10:44:15.678Z,49.23
2022-11-29T10:46:44.968Z,49.39
2022-11-29T10:49:15.690Z,49.00
2022-11-29T10:51:43.558Z,48.97
2022-11-29T10:54:27.383Z,49.16
2022-11-29T10:56:56.506Z,48.47
2022-11-29T10:59:26.193Z,48.97
2022-11-29T11:01:55.951Z,48.67
2022-11-29T11:04:29.084Z,48.69
2022-11-29T11:06:59.915Z,48.61
2022-11-29T11:09:33.328Z,48.62
2022-11-29T11:12:02.613Z,48.64
2022-11-29T11:14:32.026Z,48.36
2022-11-29T11:17:16.104Z,48.99
2022-11-29T11:19:44.446Z,48.68
2022-11-29T11:22:21.451Z,48.33
2022-11-29T11:24:58.013Z,49.00
2022-11-29T11:27:33.320Z,49.09
2022-11-29T11:30:02.222Z,48.72
2022-11-29T11:32:31.826Z,48.44
2022-11-29T11:35:01.060Z,48.30
2022-11-29T11:37:30.077Z,48.04
2022-11-29T11:39:59.751Z,48.29
2022-11-29T11:42:39.774Z,48.29
2022-11-29T11:45:28.739Z,48.54
2022-11-29T11:47:59.553Z,48.33
2022-11-29T11:50:30.541Z,48.70
2022-11-29T11:52:59.452Z,49.30
2022-11-29T11:55:33.195Z,48.70
2022-11-29T11:58:09.956Z,48.77
2022-11-29T12:01:03.442Z,48.60
2022-11-29T12:03:49.443Z,48.32
2022-11-29T12:06:42.887Z,48.82
2022-11-29T12:09:19.327Z,48.99
2022-11-29T12:11:52.571Z,48.74
2022-11-29T12:14:26.864Z,49.08
2022-11-29T12:17:05.835Z,48.90
2022-11-29T12:19:38.510Z,48.77
2022-11-29T12:22:10.001Z,48.42
2022-11-29T12:24:40.376Z,48.83
2022-11-29T12:27:12.224Z,48.58
2022-11-29T12:29:40.320Z,48.46
2022-11-29T12:32:18.293Z,48.42
2022-11-29T12:34:57.049Z,49.04
2022-11-29T12:37:28.135Z,48.43
2022-11-29T12:39:58.618Z,48.41
2022-11-29T12:42:35.978Z,48.09
2022-11-29T12:45:17.420Z,48.78
2022-11-29T12:47:52.087Z,49.67
2022-11-29T12:50:32.709Z,49.91
2022-11-29T12:53:11.266Z,49.59
2022-11-29T12:55:46.334Z,49.37
2022-11-29T12:58:19.737Z,49.60
2022-11-29T13:00:53.153Z,49.94
2022-11-29T13:03:26.119Z,50.04
2022-11-29T13:06:04.231Z,50.42
2022-11-29T13:08:52.815Z,50.28
2022-11-29T13:11:23.810Z,50.38
2022-11-29T13:14:08.220Z,49.98
2022-11-29T13:16:49.848Z,50.38
2022-11-29T13:19:25.045Z,50.33
2022-11-29T13:21:59.220Z,50.60
2022-11-29T13:24:31.724Z,50.69
2022-11-29T13:27:02.649Z,50.69
2022-11-29T13:29:30.546Z,50.93
2022-11-29T13:31:59.367Z,50.95
2022-11-29T13:34:31.687Z,51.11
2022-11-29T13:37:07.003Z,51.05
2022-11-29T13:39:47.309Z,50.60
2022-11-29T13:42:19.896Z,51.06
2022-11-29T13:44:52.837Z,51.10
2022-11-29T13:47:21.071Z,51.31
2022-11-29T13:49:54.807Z,51.40
2022-11-29T13:52:31.884Z,51.32
2022-11-29T13:55:23.001Z,51.36
2022-11-29T14:00:50.736Z,51.60
2022-11-29T14:03:33.778Z,51.74
2022-11-29T14:06:13.200Z,51.64
2022-11-29T14:11:37.689Z,51.58
2022-11-29T14:14:08.784Z,51.47
2022-11-29T14:16:39.319Z,51.71
2022-11-29T14:19:21.211Z,52.84
2022-11-29T14:22:28.690Z,53.43
2022-11-29T14:25:05.419Z,52.75
2022-11-29T14:28:03.120Z,53.52
2022-11-29T14:30:51.939Z,53.79
2022-11-29T14:33:30.373Z,54.18
2022-11-29T14:36:05.508Z,54.27
2022-11-29T14:38:39.797Z,55.73
2022-11-29T14:41:22.272Z,56.65
2022-11-29T14:43:50.278Z,57.40
2022-11-29T14:46:29.476Z,58.91
2022-11-29T14:49:02.254Z,60.82
2022-11-29T14:51:32.720Z,61.46
2022-11-29T14:54:07.452Z,61.70
2022-11-29T14:56:42.504Z,62.25
2022-11-29T14:59:43.624Z,64.57
2022-11-29T15:02:25.938Z,64.47
2022-11-29T15:04:56.319Z,65.79
2022-11-29T15:07:27.636Z,64.89
2022-11-29T15:09:57.455Z,64.78
2022-11-29T15:12:28.875Z,65.56
2022-11-29T15:15:07.804Z,64.95
2022-11-29T15:17:43.221Z,63.43
2022-11-29T15:20:31.978Z,63.09
2022-11-29T15:23:01.702Z,62.83
2022-11-29T15:25:31.777Z,61.32
2022-11-29T15:28:01.990Z,60.32
2022-11-29T15:30:32.927Z,59.97
2022-11-29T15:33:02.099Z,60.42
2022-11-29T15:35:30.301Z,60.12
2022-11-29T15:37:59.342Z,60.60
2022-11-29T15:40:34.474Z,59.83
2022-11-29T15:43:15.093Z,59.06
2022-11-29T15:45:47.899Z,59.16
2022-11-29T15:48:22.051Z,59.62
2022-11-29T15:50:54.752Z,59.93
2022-11-29T15:53:26.405Z,59.74
2022-11-29T15:55:56.018Z,60.44
2022-11-29T15:58:26.981Z,60.17
2022-11-29T16:00:56.010Z,60.77
2022-11-29T16:03:26.240Z,60.62
2022-11-29T16:06:01.341Z,61.33
2022-11-29T16:08:31.841Z,61.79
2022-11-29T16:11:00.419Z,62.49
2022-11-29T16:13:37.024Z,63.14
2022-11-29T16:16:08.475Z,64.38
2022-11-29T16:18:36.823Z,64.91
2022-11-29T16:21:07.041Z,65.13
2022-11-29T16:23:35.608Z,64.44
2022-11-29T16:26:13.617Z,66.64
2022-11-29T16:28:44.844Z,67.25
2022-11-29T16:31:18.135Z,67.43
2022-11-29T16:33:47.404Z,68.96
2022-11-29T16:36:17.319Z,70.35
2022-11-29T16:38:46.999Z,70.08
2022-11-29T16:41:24.402Z,71.04
2022-11-29T16:43:56.220Z,71.68
2022-11-29T16:46:32.690Z,71.77
2022-11-29T16:49:02.697Z,73.33
2022-11-29T16:51:39.796Z,73.02
2022-11-29T16:54:22.293Z,72.15
2022-11-29T16:56:50.772Z,70.86
2022-11-29T16:59:26.753Z,72.85
2022-11-29T17:01:55.884Z,72.56
2022-11-29T17:04:24.872Z,74.22
2022-11-29T17:06:53.858Z,75.72
2022-11-29T17:09:25.158Z,76.58
2022-11-29T17:11:53.699Z,76.46
2022-11-29T17:14:23.104Z,75.39
2022-11-29T17:16:51.962Z,76.73
2022-11-29T17:19:23.599Z,76.04
2022-11-29T17:21:52.206Z,74.47
2022-11-29T17:24:22.176Z,74.39
2022-11-29T17:26:50.725Z,74.91
2022-11-29T17:29:19.286Z,74.36
2022-11-29T17:31:50.407Z,73.39
2022-11-29T17:34:18.517Z,73.17
2022-11-29T17:36:46.424Z,72.28
2022-11-29T17:39:15.620Z,72.25
2022-11-29T17:41:43.557Z,72.19
2022-11-29T17:44:11.452Z,71.03
2022-11-29T17:46:39.257Z,70.39
2022-11-29T17:49:09.949Z,69.75
2022-11-29T17:51:55.457Z,70.06
2022-11-29T17:54:24.125Z,74.03
2022-11-29T17:56:52.101Z,87.44
2022-11-29T17:59:20.582Z,71.95
2022-11-29T18:01:48.677Z,73.14
2022-11-29T18:04:17.978Z,70.58
2022-11-29T18:06:49.679Z,70.54
2022-11-29T18:09:18.540Z,69.91
2022-11-29T18:11:49.371Z,66.10
2022-11-29T18:14:20.018Z,66.07
2022-11-29T18:16:48.204Z,63.91
2022-11-29T18:19:19.058Z,64.25
2022-11-29T18:21:47.115Z,65.55
2022-11-29T18:24:15.373Z,65.74
2022-11-29T18:26:43.534Z,64.73
2022-11-29T18:29:11.607Z,64.29
2022-11-29T18:31:41.536Z,64.52
2022-11-29T18:34:10.682Z,63.41
2022-11-29T18:36:42.751Z,64.02
2022-11-29T18:39:13.893Z,62.47
2022-11-29T18:41:42.742Z,62.14
2022-11-29T18:44:12.686Z,62.76
2022-11-29T18:46:42.940Z,61.34
2022-11-29T18:49:12.424Z,60.98
2022-11-29T18:51:42.792Z,60.65
2022-11-29T18:54:10.767Z,60.53
2022-11-29T18:56:39.494Z,61.32
2022-11-29T18:59:10.093Z,60.84
2022-11-29T19:01:41.060Z,61.26
2022-11-29T19:04:10.584Z,60.91
2022-11-29T19:06:39.886Z,60.53
2022-11-29T19:09:13.807Z,60.38
2022-11-29T19:11:42.316Z,60.82
2022-11-29T19:14:12.457Z,60.08
2022-11-29T19:16:42.564Z,60.15
2022-11-29T19:19:10.646Z,60.01
2022-11-29T19:21:39.613Z,60.77
2022-11-29T19:24:14.691Z,60.05
2022-11-29T19:26:44.847Z,59.56
2022-11-29T19:29:12.919Z,59.74
2022-11-29T19:31:40.755Z,59.43
2022-11-29T19:34:08.911Z,61.83
2022-11-29T19:36:42.475Z,60.80
2022-11-29T19:39:13.103Z,61.12
2022-11-29T19:41:41.162Z,60.06
2022-11-29T19:44:09.565Z,59.35
2022-11-29T19:46:39.080Z,58.68
2022-11-29T19:49:07.933Z,58.81
2022-11-29T19:51:36.324Z,59.46
2022-11-29T19:54:06.348Z,58.65
2022-11-29T19:56:35.643Z,58.90
2022-11-29T19:59:03.557Z,59.52
2022-11-29T20:01:40.186Z,58.71
2022-11-29T20:04:09.571Z,59.11
2022-11-29T20:06:37.630Z,58.76
2022-11-29T20:09:06.352Z,58.87
2022-11-29T20:11:35.922Z,58.81
2022-11-29T20:14:05.959Z,58.75
2022-11-29T20:16:34.162Z,58.07
2022-11-29T20:19:02.215Z,58.21
2022-11-29T20:21:32.030Z,58.15
2022-11-29T20:24:02.426Z,58.86
2022-11-29T20:26:31.729Z,59.46
2022-11-29T20:29:01.983Z,58.30
2022-11-29T20:31:30.854Z,57.98
2022-11-29T20:33:59.206Z,58.74
2022-11-29T20:36:34.615Z,58.82
2022-11-29T20:39:08.854Z,58.88
2022-11-29T20:41:41.380Z,59.06
2022-11-29T20:44:11.870Z,59.54
2022-11-29T20:46:40.096Z,58.74
2022-11-29T20:49:09.684Z,58.55
2022-11-29T20:51:41.220Z,58.92
2022-11-29T20:54:10.874Z,58.78
2022-11-29T20:56:38.655Z,58.66
2022-11-29T20:59:06.563Z,58.32
2022-11-29T21:01:35.806Z,60.10
2022-11-29T21:04:03.715Z,59.18
2022-11-29T21:06:34.311Z,58.78
2022-11-29T21:09:02.138Z,58.37
2022-11-29T21:11:30.174Z,58.43
2022-11-29T21:13:58.408Z,57.90
2022-11-29T21:16:28.981Z,58.78
2022-11-29T21:19:00.991Z,58.55
2022-11-29T21:21:33.430Z,59.75
2022-11-29T21:24:04.663Z,58.71
2022-11-29T21:26:40.169Z,58.50
2022-11-29T21:29:15.680Z,59.88
2022-11-29T21:31:43.951Z,59.23
2022-11-29T21:34:13.392Z,59.28
2022-11-29T21:36:41.380Z,58.71
2022-11-29T21:39:12.651Z,59.23
2022-11-29T21:41:40.539Z,59.39
2022-11-29T21:44:08.802Z,59.06
2022-11-29T21:46:37.124Z,61.89
2022-11-29T21:49:05.492Z,61.85
2022-11-29T21:51:34.870Z,65.43
2022-11-29T21:54:03.025Z,59.54
2022-11-29T21:56:30.827Z,65.64
2022-11-29T21:58:58.653Z,67.85
2022-11-29T22:01:30.127Z,65.19
2022-11-29T22:03:58.208Z,62.06
2022-11-29T22:06:27.655Z,55.02
2022-11-29T22:08:57.056Z,56.79
2022-11-29T22:11:31.764Z,57.20
2022-11-29T22:14:15.969Z,56.63
2022-11-29T22:16:48.247Z,54.85
2022-11-29T22:19:17.871Z,54.90
2022-11-29T22:21:46.779Z,55.09
2022-11-29T22:24:17.210Z,55.54
2022-11-29T22:26:45.086Z,57.48
2022-11-29T22:29:14.129Z,56.69
2022-11-29T22:31:42.478Z,57.03
2022-11-29T22:34:10.789Z,57.44
2022-11-29T22:36:39.530Z,58.81
2022-11-29T22:39:08.730Z,57.62
2022-11-29T22:41:39.012Z,57.42
2022-11-29T22:44:07.236Z,57.76
2022-11-29T22:46:40.464Z,57.58
2022-11-29T22:49:08.648Z,58.00
2022-11-29T22:51:38.074Z,58.67
2022-11-29T22:54:07.476Z,58.87
2022-11-29T22:56:38.238Z,58.98
2022-11-29T22:59:06.695Z,58.85
2022-11-29T23:01:36.041Z,58.07
2022-11-29T23:04:06.012Z,58.67
2022-11-29T23:06:35.244Z,59.44
2022-11-29T23:09:06.422Z,58.31
2022-11-29T23:11:34.695Z,58.62
2022-11-29T23:14:03.897Z,58.64
2022-11-29T23:16:32.749Z,58.36
2022-11-29T23:19:01.297Z,58.65
2022-11-29T23:21:31.165Z,58.86
2022-11-29T23:24:00.903Z,58.53
2022-11-29T23:26:30.231Z,58.21
2022-11-29T23:28:58.258Z,58.87
2022-11-29T23:31:27.835Z,58.62
2022-11-29T23:33:55.827Z,57.79
2022-11-29T23:36:23.832Z,58.93
2022-11-29T23:38:51.838Z,58.47
2022-11-29T23:41:19.709Z,57.43
2022-11-29T23:43:47.609Z,58.80
2022-11-29T23:46:17.316Z,60.03
2022-11-29T23:48:47.025Z,63.68
2022-11-29T23:51:15.026Z,57.62
2022-11-29T23:53:43.284Z,57.25
2022-11-29T23:56:13.866Z,57.84
2022-11-29T23:58:41.888Z,56.92
